Time;durP1;ratioP1;P1;durP2;ratioP2;P2;SDS_P1;SDS_P2;PMS_P1;PMS_P2;Temp;Humidity;BMP_temperature;BMP_pressure;BME280_temperature;BME280_humidity;BME280_pressure;Samples;Min_cycle;Max_cycle;Signal;HPM_P1;HPM_P2
2021/11/08 00:00:36;;;;;;;27.75;18.52;;;;;;;12.24;62.06;100039.94;4452162;32;33576;-47
2021/11/08 00:03:07;;;;;;;27.55;19.62;;;;;;;12.16;62.15;100035.62;4450907;32;33806;-48
2021/11/08 00:05:39;;;;;;;27.17;19.48;;;;;;;12.22;61.95;100026.03;4452181;32;34693;-49
2021/11/08 00:08:07;;;;;;;26.53;18.63;;;;;;;12.24;61.81;100029.50;4452120;32;34514;-48
2021/11/08 00:10:36;;;;;;;30.83;21.30;;;;;;;12.18;61.98;100044.31;4452423;32;34450;-48
2021/11/08 00:13:07;;;;;;;37.45;22.85;;;;;;;12.15;62.18;100054.72;4452009;32;34229;-50
2021/11/08 00:15:52;;;;;;;32.75;22.15;;;;;;;12.28;61.76;100056.44;4452412;32;34873;-49
2021/11/08 00:20:57;;;;;;;32.42;23.25;;;;;;;12.42;61.23;99999.00;4451321;32;33302;-48
2021/11/08 00:23:26;;;;;;;35.03;22.90;;;;;;;12.20;61.86;100009.53;4452758;32;33976;-48
2021/11/08 00:25:57;;;;;;;33.90;23.30;;;;;;;12.28;61.41;100009.50;4452707;32;35755;-49
2021/11/08 00:28:25;;;;;;;33.70;22.73;;;;;;;12.30;61.55;100017.31;4452327;32;34446;-48
2021/11/08 00:30:54;;;;;;;35.72;24.48;;;;;;;12.52;60.90;100035.50;4452311;32;33275;-48
2021/11/08 00:33:22;;;;;;;33.03;23.45;;;;;;;12.44;61.09;100026.81;4452276;32;33852;-48
2021/11/08 00:35:56;;;;;;;32.65;23.05;;;;;;;12.35;61.39;100008.59;4452477;32;35937;-50
2021/11/08 00:38:24;;;;;;;36.05;23.58;;;;;;;12.12;61.95;100007.84;4452314;32;35070;-48
2021/11/08 00:40:53;;;;;;;33.63;23.00;;;;;;;12.09;62.16;99997.41;4452174;32;33370;-48
2021/11/08 00:43:22;;;;;;;33.33;23.58;;;;;;;12.07;62.30;100006.97;4452387;32;33888;-48
2021/11/08 00:45:51;;;;;;;34.60;22.52;;;;;;;12.04;62.46;100020.00;4452355;32;34866;-48
2021/11/08 00:48:22;;;;;;;36.55;24.23;;;;;;;12.19;62.16;100019.97;4452317;32;34895;-49
2021/11/08 00:50:51;;;;;;;34.58;23.12;;;;;;;12.31;61.82;100016.47;4452449;32;34413;-49
2021/11/08 00:53:19;;;;;;;35.95;23.40;;;;;;;12.23;61.99;100013.87;4452747;32;33956;-48
2021/11/08 00:55:50;;;;;;;33.53;23.08;;;;;;;12.11;62.56;100016.50;4451670;32;34901;-48
2021/11/08 00:58:27;;;;;;;35.45;23.45;;;;;;;12.27;62.04;100030.34;4451029;32;34412;-49
2021/11/08 01:00:54;;;;;;;30.95;22.13;;;;;;;11.92;63.05;100038.28;4451500;32;33768;-49
2021/11/08 01:03:22;;;;;;;31.80;22.83;;;;;;;12.08;62.50;100047.78;4451122;32;33773;-48
2021/11/08 01:05:50;;;;;;;32.78;21.75;;;;;;;12.23;61.99;100042.56;4451107;32;35510;-48
2021/11/08 01:08:18;;;;;;;34.53;22.33;;;;;;;12.11;62.36;100039.97;4451148;32;35373;-48
2021/11/08 01:10:45;;;;;;;34.97;23.65;;;;;;;11.83;63.08;100053.94;4451509;32;34507;-48
2021/11/08 01:13:13;;;;;;;34.83;23.02;;;;;;;12.18;62.29;100052.12;4451492;32;33940;-49
2021/11/08 01:15:40;;;;;;;34.22;22.75;;;;;;;12.01;62.76;100059.12;4450640;32;35358;-49
2021/11/08 01:18:08;;;;;;;36.15;24.02;;;;;;;12.02;62.57;100042.62;4449919;32;34584;-49
2021/11/08 01:20:36;;;;;;;34.42;22.20;;;;;;;11.93;62.81;100027.00;4451547;32;33916;-49
2021/11/08 01:23:04;;;;;;;31.55;21.83;;;;;;;11.98;62.63;100027.88;4451406;32;33805;-48
2021/11/08 01:25:33;;;;;;;33.75;22.85;;;;;;;12.04;62.44;100025.22;4450554;32;34588;-48
2021/11/08 01:28:03;;;;;;;36.10;22.95;;;;;;;11.86;62.89;100030.50;4451780;32;35156;-49
2021/11/08 01:30:31;;;;;;;29.37;20.92;;;;;;;11.91;62.78;100039.19;4451836;32;33848;-48
2021/11/08 01:33:05;;;;;;;28.62;20.98;;;;;;;11.94;62.63;100037.41;4451758;32;34092;-48
2021/11/08 01:35:56;;;;;;;31.67;22.20;;;;;;;11.77;62.98;100027.88;4451938;32;35814;-49
2021/11/08 01:38:26;;;;;;;30.67;21.05;;;;;;;11.82;62.77;100036.56;4451530;32;34991;-48
2021/11/08 01:40:53;;;;;;;31.95;21.58;;;;;;;11.49;63.64;100048.72;4451435;32;34373;-48
2021/11/08 01:43:21;;;;;;;29.30;21.08;;;;;;;11.81;62.85;100012.25;4451221;32;34390;-49
2021/11/08 01:45:48;;;;;;;29.87;21.33;;;;;;;12.11;62.15;100006.09;4451258;32;34877;-49
2021/11/08 01:48:16;;;;;;;30.90;20.23;;;;;;;11.93;62.41;100016.56;4450876;32;35240;-48
2021/11/08 01:50:43;;;;;;;28.75;20.98;;;;;;;11.80;62.61;100035.69;4450859;32;34017;-48
2021/11/08 01:53:12;;;;;;;29.35;20.45;;;;;;;12.04;62.13;100027.84;4450696;32;34841;-49
2021/11/08 01:55:40;;;;;;;27.27;19.23;;;;;;;12.19;61.56;100036.47;4451114;32;34977;-49
2021/11/08 01:58:09;;;;;;;25.33;18.27;;;;;;;11.91;62.15;100054.81;4450597;32;34568;-51
2021/11/08 02:00:37;;;;;;;28.10;18.48;;;;;;;11.82;62.18;100060.87;4450055;32;32855;-48
2021/11/08 02:03:05;;;;;;;24.77;17.48;;;;;;;11.81;61.79;100048.75;4451131;32;34657;-47
2021/11/08 02:05:33;;;;;;;24.15;16.70;;;;;;;11.82;61.60;100046.97;4450986;32;34982;-48
2021/11/08 02:08:00;;;;;;;21.77;14.65;;;;;;;11.84;60.50;100032.22;4449585;32;34663;-48
2021/11/08 02:10:28;;;;;;;20.10;13.73;;;;;;;11.90;60.45;100017.44;4450048;32;33279;-49
2021/11/08 02:12:57;;;;;;;21.65;13.00;;;;;;;12.01;60.11;100009.59;4450746;32;34341;-50
2021/11/08 02:15:24;;;;;;;19.37;13.15;;;;;;;12.16;58.83;100004.34;4451365;32;34668;-48
2021/11/08 02:17:52;;;;;;;16.85;12.20;;;;;;;12.19;58.61;100014.75;4451044;32;34435;-48
2021/11/08 02:20:28;;;;;;;16.45;11.75;;;;;;;12.22;58.23;100022.56;4451332;32;33773;-48
2021/11/08 02:22:59;;;;;;;17.77;11.68;;;;;;;11.80;58.06;100030.47;4451498;32;34641;-48
2021/11/08 02:25:29;;;;;;;16.52;12.02;;;;;;;11.86;58.50;100009.63;4450064;32;35791;-49
2021/11/08 02:27:57;;;;;;;16.87;11.63;;;;;;;12.10;57.91;99996.50;4449665;32;36550;-48
2021/11/08 02:30:28;;;;;;;19.23;12.35;;;;;;;11.92;58.29;100009.63;4451392;32;33416;-47
2021/11/08 02:32:57;;;;;;;21.77;12.70;;;;;;;11.98;58.26;100020.03;4451390;32;34845;-48
2021/11/08 02:35:25;;;;;;;17.73;11.88;;;;;;;11.80;58.53;100028.75;4451466;32;35218;-51
2021/11/08 02:37:53;;;;;;;18.42;12.13;;;;;;;11.82;58.71;100050.47;4453278;32;34254;-48
2021/11/08 02:40:24;;;;;;;14.10;10.32;;;;;;;11.86;58.67;100039.16;4453349;32;34535;-48
2021/11/08 02:42:55;;;;;;;14.43;10.35;;;;;;;12.00;58.44;100021.78;4453172;32;33970;-49
2021/11/08 02:45:25;;;;;;;15.07;10.50;;;;;;;11.76;58.17;100024.41;4453014;32;34847;-48
2021/11/08 02:47:53;;;;;;;16.48;11.00;;;;;;;11.81;57.99;100037.44;4452870;32;35168;-49
2021/11/08 02:50:24;;;;;;;14.55;9.63;;;;;;;11.92;57.71;100040.87;4452808;32;34349;-48
2021/11/08 02:52:53;;;;;;;13.82;9.43;;;;;;;11.81;58.10;100056.56;4453122;32;33842;-50
2021/11/08 02:55:24;;;;;;;14.82;9.48;;;;;;;11.78;58.11;100073.91;4451833;32;35706;-49
2021/11/08 02:57:54;;;;;;;13.77;8.98;;;;;;;11.79;58.10;100091.31;4453007;32;35158;-48
2021/11/08 03:00:24;;;;;;;13.38;8.20;;;;;;;11.96;57.02;100073.88;4452525;32;33251;-48
2021/11/08 03:02:52;;;;;;;14.93;8.85;;;;;;;11.98;56.42;100052.16;4451400;32;33736;-48
2021/11/08 03:05:30;;;;;;;13.13;8.18;;;;;;;11.87;56.50;100048.72;4452942;32;35982;-49
2021/11/08 03:08:04;;;;;;;12.10;8.55;;;;;;;11.97;55.47;100029.59;4452853;32;34509;-50
2021/11/08 03:10:34;;;;;;;10.68;8.30;;;;;;;11.88;55.98;100024.41;4453208;32;33992;-49
2021/11/08 03:13:10;;;;;;;11.27;8.20;;;;;;;11.85;56.35;100045.25;4453279;32;35022;-48
2021/11/08 03:19:03;;;;;;;14.90;8.85;;;;;;;11.90;57.14;100076.53;4453010;32;34178;-48
2021/11/08 03:21:02;;;;;;;12.52;8.38;;;;;;;12.00;56.77;100076.53;4448816;32;33401;-49
2021/11/08 03:23:30;;;;;;;10.85;8.07;;;;;;;12.03;56.73;100070.41;4452666;32;34342;-48
2021/11/08 03:26:09;;;;;;;13.60;8.65;;;;;;;11.90;57.27;100061.75;4452268;32;35682;-49
2021/11/08 03:28:37;;;;;;;12.32;8.73;;;;;;;12.01;57.16;100066.94;4451217;32;34626;-50
2021/11/08 03:31:09;;;;;;;11.30;8.30;;;;;;;11.98;57.30;100069.56;4451950;32;33673;-48
2021/11/08 03:33:38;;;;;;;12.30;8.85;;;;;;;12.01;57.20;100070.41;4452254;32;33888;-48
2021/11/08 03:36:06;;;;;;;12.70;9.15;;;;;;;12.14;57.53;100079.09;4450444;32;35871;-48
2021/11/08 03:38:37;;;;;;;11.63;8.70;;;;;;;12.14;57.46;100074.75;4451596;32;35007;-49
2021/11/08 03:41:06;;;;;;;14.02;9.50;;;;;;;12.16;57.84;100066.91;4451868;32;34352;-49
2021/11/08 03:43:34;;;;;;;13.57;9.52;;;;;;;11.94;58.56;100071.28;4451848;32;34936;-48
2021/11/08 03:46:02;;;;;;;13.40;8.93;;;;;;;11.83;59.22;100061.75;4452411;32;35997;-49
2021/11/08 03:48:30;;;;;;;15.43;9.02;;;;;;;11.97;58.97;100080.84;4451420;32;34945;-48
2021/11/08 03:50:58;;;;;;;11.35;9.10;;;;;;;11.85;59.48;100080.87;4452475;32;33525;-48
2021/11/08 03:53:25;;;;;;;14.25;9.73;;;;;;;11.87;59.13;100084.34;4452117;32;34656;-48
2021/11/08 03:55:53;;;;;;;11.25;8.38;;;;;;;11.86;58.99;100098.25;4451850;32;35008;-48
2021/11/08 03:58:21;;;;;;;11.82;9.48;;;;;;;12.00;59.38;100086.06;4452010;32;35190;-48
2021/11/08 04:00:49;;;;;;;11.82;8.35;;;;;;;11.85;59.67;100092.16;4451985;32;33855;-48
2021/11/08 04:03:17;;;;;;;11.88;8.63;;;;;;;11.88;59.52;100086.97;4450737;32;34823;-48
2021/11/08 04:05:45;;;;;;;11.63;8.40;;;;;;;11.91;59.30;100086.94;4451758;32;35851;-48
2021/11/08 04:08:16;;;;;;;14.25;9.55;;;;;;;11.91;59.62;100093.91;4452148;32;34572;-49
2021/11/08 04:10:45;;;;;;;12.98;8.75;;;;;;;11.91;60.02;100097.34;4452182;32;33291;-47
2021/11/08 04:13:13;;;;;;;12.30;8.82;;;;;;;11.80;60.54;100098.22;4452018;32;33830;-49
2021/11/08 04:15:45;;;;;;;10.77;8.27;;;;;;;11.97;60.23;100099.09;4451882;32;34867;-48
2021/11/08 04:18:16;;;;;;;12.93;9.10;;;;;;;11.95;59.94;100098.25;4451871;32;35064;-48
2021/11/08 04:20:45;;;;;;;12.02;8.27;;;;;;;11.87;60.19;100105.19;4452236;32;33601;-48
2021/11/08 04:23:15;;;;;;;12.63;9.00;;;;;;;11.77;60.04;100091.28;4450914;32;33820;-48
2021/11/08 04:25:43;;;;;;;13.70;9.25;;;;;;;11.61;60.08;100101.69;4452154;32;35072;-48
2021/11/08 04:28:11;;;;;;;12.32;8.85;;;;;;;11.75;60.09;100097.38;4451080;32;34159;-48
2021/11/08 04:30:42;;;;;;;10.70;8.10;;;;;;;11.54;60.24;100109.50;4452314;32;33504;-48
2021/11/08 04:38:33;;;;;;;15.88;9.48;;;;;;;11.67;60.24;100096.47;4452116;32;34512;-48
2021/11/08 04:41:11;;;;;;;11.27;8.63;;;;;;;11.43;60.75;100102.56;4451459;32;33464;-48
2021/11/08 04:49:07;;;;;;;10.60;7.30;;;;;;;11.35;60.40;100067.81;4452130;32;34141;-48
2021/11/08 04:54:39;;;;;;;12.73;7.82;;;;;;;11.11;60.32;100060.84;4452351;32;33951;-49
2021/11/08 05:22:08;;;;;;;9.68;7.43;;;;;;;11.07;59.58;100126.78;4451808;32;34485;-48
2021/11/08 05:25:00;;;;;;;10.32;7.72;;;;;;;10.82;60.02;100143.16;4451699;32;34243;-49
2021/11/08 05:30:14;;;;;;;11.05;7.70;;;;;;;10.98;59.14;100160.59;4451330;32;35470;-47
2021/11/08 05:32:46;;;;;;;10.57;8.00;;;;;;;10.96;59.41;100159.69;4451314;32;35004;-48
2021/11/08 05:35:14;;;;;;;10.82;7.37;;;;;;;11.09;59.11;100148.47;4451331;32;34306;-48
2021/11/08 05:37:44;;;;;;;10.85;7.22;;;;;;;10.93;59.43;100151.88;4451077;32;34028;-47
2021/11/08 05:40:16;;;;;;;11.25;7.25;;;;;;;11.07;58.83;100150.19;4451548;32;36180;-48
2021/11/08 05:42:44;;;;;;;10.18;7.05;;;;;;;11.04;59.11;100157.12;4451599;32;34257;-48
2021/11/08 05:45:15;;;;;;;10.50;7.20;;;;;;;11.13;58.67;100163.22;4451289;32;33868;-48
2021/11/08 05:47:44;;;;;;;8.75;7.07;;;;;;;11.00;59.24;100158.84;4451671;32;34786;-48
2021/11/08 05:50:14;;;;;;;10.05;6.85;;;;;;;10.99;59.41;100151.91;4451381;32;35215;-47
2021/11/08 05:52:43;;;;;;;10.15;6.80;;;;;;;11.09;59.27;100151.06;4451592;32;34119;-48
2021/11/08 05:55:10;;;;;;;10.40;6.93;;;;;;;11.04;59.29;100150.19;4451637;32;34335;-48
2021/11/08 05:57:46;;;;;;;11.07;6.62;;;;;;;11.06;59.23;100171.88;4451590;32;35117;-48
2021/11/08 06:50:10;;;;;;;10.48;6.78;;;;;;;11.15;57.58;100276.03;4457443;32;33389;-49
2021/11/08 06:52:39;;;;;;;10.60;7.90;;;;;;;11.00;58.25;100285.50;4457202;32;34014;-49
2021/11/08 06:55:07;;;;;;;10.18;7.05;;;;;;;10.94;58.60;100280.25;4456985;32;34877;-49
2021/11/08 06:57:51;;;;;;;9.60;6.68;;;;;;;10.75;58.59;100289.69;4456868;32;35169;-49
2021/11/08 07:00:22;;;;;;;10.65;6.60;;;;;;;10.93;58.01;100288.94;4457221;32;34489;-48
2021/11/08 07:02:49;;;;;;;10.30;6.70;;;;;;;11.20;57.04;100287.34;4456786;32;33944;-50
2021/11/08 07:05:16;;;;;;;9.20;6.68;;;;;;;11.01;58.15;100290.72;4457283;32;35725;-51
2021/11/08 07:07:44;;;;;;;8.85;6.05;;;;;;;11.09;57.82;100286.44;4457147;32;34514;-49
2021/11/08 07:10:12;;;;;;;9.52;6.60;;;;;;;11.14;57.93;100283.84;4457021;32;33567;-49
2021/11/08 07:12:39;;;;;;;11.98;6.85;;;;;;;11.39;57.71;100283.09;4457274;32;34823;-50
2021/11/08 07:15:09;;;;;;;8.82;6.55;;;;;;;11.25;57.92;100293.44;4452621;32;34817;-47
2021/11/08 07:17:44;;;;;;;13.55;7.70;;;;;;;11.08;57.74;100305.50;4453429;32;34726;-48
2021/11/08 07:20:19;;;;;;;10.85;6.47;;;;;;;11.11;58.86;100302.94;4455310;32;33900;-47
2021/11/08 07:22:49;;;;;;;9.65;6.60;;;;;;;10.96;57.96;100295.00;4453454;32;34609;-48
2021/11/08 07:25:32;;;;;;;10.68;5.90;;;;;;;11.11;57.47;100286.44;4453176;32;35314;-46
2021/11/08 07:28:11;;;;;;;10.23;6.43;;;;;;;10.60;59.08;100302.59;4452677;32;35169;-46
2021/11/08 07:30:48;;;;;;;9.38;6.28;;;;;;;10.62;58.77;100306.06;4452875;32;33272;-47
2021/11/08 07:33:21;;;;;;;11.20;6.05;;;;;;;10.81;58.34;100313.16;4452091;32;34594;-49
2021/11/08 07:35:49;;;;;;;11.70;6.70;;;;;;;10.79;58.30;100320.09;4452988;32;34939;-51
2021/11/08 07:38:16;;;;;;;8.20;6.20;;;;;;;10.70;58.83;100320.00;4453209;32;34461;-48
2021/11/08 07:40:43;;;;;;;9.98;6.95;;;;;;;11.33;56.94;100304.78;4452463;32;33233;-47
2021/11/08 07:43:11;;;;;;;10.07;6.62;;;;;;;11.33;57.15;100296.97;4453567;32;34076;-49
2021/11/08 07:45:39;;;;;;;11.20;6.93;;;;;;;11.17;57.74;100297.75;4452490;32;34961;-50
2021/11/08 07:48:07;;;;;;;9.25;6.75;;;;;;;11.19;57.93;100309.06;4452433;32;34132;-47
2021/11/08 07:50:38;;;;;;;8.98;6.97;;;;;;;11.42;57.67;100311.75;4452316;32;33585;-49
2021/11/08 07:53:07;;;;;;;8.82;7.00;;;;;;;11.24;57.74;100309.06;4451578;32;33664;-48
2021/11/08 07:55:35;;;;;;;8.85;6.07;;;;;;;11.06;58.14;100315.03;4452874;32;35197;-47
2021/11/08 07:58:05;;;;;;;11.23;6.62;;;;;;;11.05;58.16;100322.84;4451582;32;35070;-51
2021/11/08 08:00:38;;;;;;;11.10;6.47;;;;;;;11.29;57.69;100320.38;4450862;32;34190;-50
2021/11/08 08:03:07;;;;;;;8.25;6.12;;;;;;;11.14;57.55;100320.28;4453487;32;34033;-50
2021/11/08 08:05:36;;;;;;;10.35;6.60;;;;;;;11.12;58.11;100333.31;4453947;32;35832;-47
2021/11/08 08:08:03;;;;;;;8.88;6.30;;;;;;;10.95;58.43;100326.25;4453608;32;34294;-49
2021/11/08 08:10:31;;;;;;;8.18;5.93;;;;;;;10.88;58.54;100320.12;4453072;32;34271;-50
2021/11/08 08:12:58;;;;;;;10.15;6.65;;;;;;;10.88;58.18;100322.75;4453534;32;34953;-51
2021/11/08 08:15:26;;;;;;;10.80;7.45;;;;;;;10.99;58.22;100323.66;4451721;32;35272;-48
2021/11/08 08:17:56;;;;;;;9.95;6.95;;;;;;;11.14;58.08;100307.28;4453603;32;34116;-49
2021/11/08 08:20:25;;;;;;;10.25;6.00;;;;;;;11.26;57.80;100290.00;4453815;32;33878;-49
2021/11/08 08:22:53;;;;;;;10.68;5.45;;;;;;;11.12;57.62;100299.47;4453922;32;34758;-49
2021/11/08 08:25:21;;;;;;;10.02;6.15;;;;;;;11.29;57.20;100317.78;4453629;32;34754;-49
2021/11/08 08:27:50;;;;;;;7.40;5.90;;;;;;;10.97;58.49;100334.94;4453940;32;35161;-49
2021/11/08 08:30:17;;;;;;;10.18;5.80;;;;;;;10.92;58.49;100332.31;4453517;32;33425;-49
2021/11/08 08:32:45;;;;;;;8.63;5.53;;;;;;;11.00;58.29;100335.84;4453684;32;34721;-51
2021/11/08 08:35:12;;;;;;;8.07;5.50;;;;;;;10.92;58.85;100334.03;4453467;32;35782;-49
2021/11/08 08:37:41;;;;;;;9.48;5.87;;;;;;;11.17;58.32;100328.97;4453608;32;34018;-49
2021/11/08 08:40:09;;;;;;;10.40;6.18;;;;;;;10.86;58.81;100332.28;4453511;32;34491;-49
2021/11/08 08:42:36;;;;;;;9.73;6.40;;;;;;;10.92;58.96;100342.72;4453584;32;33511;-49
2021/11/08 08:45:05;;;;;;;7.47;5.65;;;;;;;11.11;58.54;100354.12;4453640;32;35567;-49
2021/11/08 08:47:33;;;;;;;8.35;5.85;;;;;;;11.19;58.05;100344.63;4453453;32;34221;-49
2021/11/08 08:50:01;;;;;;;8.38;5.68;;;;;;;10.74;60.01;100353.00;4453567;32;34248;-53
2021/11/08 08:52:29;;;;;;;8.10;5.18;;;;;;;11.13;58.45;100358.47;4453599;32;33980;-50
2021/11/08 08:54:57;;;;;;;11.50;5.57;;;;;;;11.22;58.81;100363.72;4453657;32;35760;-49
2021/11/08 08:57:24;;;;;;;7.72;5.47;;;;;;;10.93;59.65;100365.28;4452119;32;34217;-50
2021/11/08 08:59:52;;;;;;;11.63;5.78;;;;;;;11.51;57.76;100362.16;4453501;32;34055;-51
2021/11/08 09:02:39;;;;;;;7.28;5.47;;;;;;;11.65;57.40;100382.22;4452660;32;33874;-49
2021/11/08 09:05:07;;;;;;;9.05;5.72;;;;;;;11.79;57.42;100398.81;4452944;32;35826;-47
2021/11/08 09:07:35;;;;;;;9.48;6.50;;;;;;;11.84;57.12;100394.50;4453022;32;34369;-47
2021/11/08 09:10:03;;;;;;;7.15;5.72;;;;;;;11.63;57.59;100394.34;4451798;32;33346;-47
2021/11/08 09:12:31;;;;;;;9.13;5.93;;;;;;;11.86;57.75;100397.97;4453070;32;34782;-48
2021/11/08 09:14:59;;;;;;;8.95;5.90;;;;;;;12.03;56.70;100391.06;4452819;32;34703;-48
2021/11/08 09:17:27;;;;;;;9.60;5.97;;;;;;;11.89;57.09;100382.31;4453012;32;34373;-48
2021/11/08 09:20:09;;;;;;;9.27;5.47;;;;;;;12.12;56.73;100368.50;4453119;32;33313;-51
2021/11/08 09:22:37;;;;;;;9.38;5.45;;;;;;;12.06;57.38;100375.44;4453197;32;34751;-47
2021/11/08 09:25:05;;;;;;;9.20;5.68;;;;;;;12.08;56.53;100387.62;4452849;32;34904;-48
2021/11/08 09:27:33;;;;;;;7.20;5.68;;;;;;;12.10;56.89;100380.66;4452861;32;34215;-50
2021/11/08 09:30:05;;;;;;;8.60;5.32;;;;;;;11.99;57.27;100371.94;4452508;32;33568;-48
2021/11/08 09:32:33;;;;;;;7.78;5.25;;;;;;;12.31;56.67;100374.66;4450937;32;33181;-49
2021/11/08 09:35:01;;;;;;;10.68;5.72;;;;;;;12.50;55.77;100379.03;4452927;32;35771;-48
2021/11/08 09:37:32;;;;;;;7.65;5.65;;;;;;;12.43;56.33;100382.47;4452854;32;34448;-48
2021/11/08 09:40:01;;;;;;;8.10;5.15;;;;;;;12.63;55.16;100383.37;4452816;32;34035;-48
2021/11/08 09:42:29;;;;;;;6.45;5.10;;;;;;;12.51;55.24;100372.03;4453117;32;34618;-49
2021/11/08 09:44:56;;;;;;;8.35;5.35;;;;;;;12.27;55.52;100372.87;4451386;32;34781;-53
2021/11/08 09:47:24;;;;;;;9.55;5.78;;;;;;;12.36;55.77;100378.09;4452397;32;35338;-48
2021/11/08 09:49:59;;;;;;;13.38;6.12;;;;;;;12.64;54.67;100382.50;4451920;32;33476;-48
2021/11/08 09:52:29;;;;;;;8.38;5.28;;;;;;;12.71;55.16;100376.44;4451546;32;33805;-49
2021/11/08 09:54:59;;;;;;;9.02;4.28;;;;;;;12.63;55.36;100367.72;4452985;32;34761;-48
2021/11/08 09:57:26;;;;;;;6.87;4.65;;;;;;;12.62;54.35;100360.75;4449303;32;34417;-47
2021/11/08 09:59:55;;;;;;;5.43;4.00;;;;;;;12.53;54.60;100355.53;4452147;32;33618;-47
2021/11/08 10:02:37;;;;;;;7.32;4.25;;;;;;;12.61;54.65;100348.59;4452477;32;34795;-48
2021/11/08 10:05:05;;;;;;;6.75;4.32;;;;;;;12.69;54.30;100356.41;4451464;32;35681;-53
2021/11/08 10:07:32;;;;;;;5.72;3.78;;;;;;;12.57;54.36;100345.97;4452059;32;34831;-50
2021/11/08 10:10:06;;;;;;;6.05;4.32;;;;;;;12.86;54.21;100354.66;4451354;32;34238;-50
2021/11/08 10:12:34;;;;;;;10.70;6.43;;;;;;;13.10;53.37;100351.19;4451062;32;33333;-47
2021/11/08 10:15:02;;;;;;;7.18;3.90;;;;;;;12.84;53.78;100356.38;4451383;32;35808;-50
2021/11/08 10:17:30;;;;;;;7.82;4.45;;;;;;;13.01;53.29;100357.25;4452336;32;34321;-50
2021/11/08 10:20:01;;;;;;;6.05;4.57;;;;;;;12.96;52.69;100359.00;4452785;32;33613;-47
2021/11/08 10:22:30;;;;;;;7.62;4.18;;;;;;;12.68;53.87;100350.31;4452400;32;33960;-48
2021/11/08 10:24:58;;;;;;;6.00;3.90;;;;;;;12.52;53.82;100355.53;4452411;32;34642;-47
2021/11/08 10:27:40;;;;;;;5.72;3.80;;;;;;;12.39;54.08;100357.25;4452500;32;34282;-50
2021/11/08 10:30:31;;;;;;;7.25;3.78;;;;;;;12.86;53.14;100362.47;4452386;32;33605;-48
2021/11/08 10:33:09;;;;;;;5.97;3.78;;;;;;;12.82;52.33;100363.34;4452548;32;33466;-47
2021/11/08 10:35:40;;;;;;;5.62;3.60;;;;;;;12.75;52.69;100356.41;4451532;32;35791;-47
2021/11/08 10:38:19;;;;;;;6.50;4.00;;;;;;;12.73;53.66;100359.03;4452171;32;34453;-46
2021/11/08 10:40:57;;;;;;;7.82;3.75;;;;;;;12.97;52.39;100360.75;4451350;32;33337;-50
2021/11/08 10:43:46;;;;;;;4.62;2.75;;;;;;;12.75;52.52;100359.00;4450544;32;33892;-53
2021/11/08 10:46:16;;;;;;;5.25;3.05;;;;;;;12.75;51.79;100357.28;4450105;32;34712;-53
2021/11/08 10:48:47;;;;;;;6.10;3.12;;;;;;;12.74;51.64;100354.69;4450386;32;34081;-51
2021/11/08 10:51:22;;;;;;;6.62;3.40;;;;;;;12.64;52.04;100348.59;4451378;32;34070;-49
2021/11/08 10:53:55;;;;;;;7.40;3.20;;;;;;;12.76;52.44;100340.75;4452307;32;34512;-50
2021/11/08 10:56:27;;;;;;;8.73;3.22;;;;;;;12.70;52.44;100337.25;4438095;32;35776;-48
2021/11/08 10:58:56;;;;;;;8.85;3.55;;;;;;;12.90;52.06;100331.19;4453673;32;35109;-50
2021/11/08 11:01:36;;;;;;;6.82;3.47;;;;;;;13.00;52.43;100337.25;4453048;32;33193;-48
2021/11/08 11:04:05;;;;;;;9.20;3.37;;;;;;;12.85;51.31;100342.47;4453014;32;33708;-49
2021/11/08 11:06:38;;;;;;;5.75;3.17;;;;;;;12.87;52.09;100336.38;4454115;32;36369;-48
2021/11/08 11:09:30;;;;;;;7.68;3.65;;;;;;;13.10;51.37;100348.59;4454155;32;35146;-52
2021/11/08 11:12:11;;;;;;;8.65;4.28;;;;;;;13.00;51.57;100337.25;4453984;32;34499;-50
2021/11/08 11:14:55;;;;;;;7.97;4.80;;;;;;;13.01;52.18;100336.38;4454292;32;34032;-52
2021/11/08 11:17:32;;;;;;;6.00;4.30;;;;;;;13.11;51.83;100334.63;4452362;32;35037;-52
2021/11/08 11:20:14;;;;;;;7.10;4.10;;;;;;;12.70;52.76;100335.53;4454135;32;35137;-46
2021/11/08 11:23:00;;;;;;;5.95;3.60;;;;;;;12.87;52.58;100341.63;4454030;32;33778;-48
2021/11/08 11:25:29;;;;;;;9.60;4.25;;;;;;;13.03;52.13;100336.34;4454429;32;34109;-50
2021/11/08 11:28:00;;;;;;;7.30;4.07;;;;;;;13.02;52.52;100338.13;4452660;32;34677;-48
2021/11/08 11:30:43;;;;;;;6.45;4.18;;;;;;;12.86;53.56;100345.06;4453849;32;34940;-49
2021/11/08 11:33:18;;;;;;;9.70;4.07;;;;;;;13.06;53.25;100344.22;4452697;32;33276;-49
2021/11/08 11:35:48;;;;;;;6.40;3.85;;;;;;;12.81;53.34;100335.53;4454055;32;34501;-48
2021/11/08 11:38:23;;;;;;;6.85;3.35;;;;;;;12.74;53.46;100336.41;4454101;32;35810;-49
2021/11/08 11:41:07;;;;;;;5.47;4.00;;;;;;;12.62;53.04;100334.66;4453138;32;35032;-51
2021/11/08 11:43:39;;;;;;;5.07;3.28;;;;;;;12.70;52.69;100327.69;4454062;32;34211;-53
2021/11/08 11:46:12;;;;;;;8.50;3.47;;;;;;;12.91;52.12;100332.91;4454124;32;33789;-48
2021/11/08 11:48:40;;;;;;;5.80;3.20;;;;;;;13.12;51.72;100334.63;4454049;32;34840;-48
2021/11/08 11:51:15;;;;;;;5.60;3.97;;;;;;;13.14;51.25;100334.63;4453934;32;34177;-52
2021/11/08 11:53:43;;;;;;;6.43;4.12;;;;;;;13.17;50.92;100335.50;4452787;32;33551;-49
2021/11/08 11:56:13;;;;;;;7.37;3.97;;;;;;;12.98;51.06;100340.75;4446556;32;201136;-49
2021/11/08 11:58:41;;;;;;;5.65;3.37;;;;;;;12.58;52.56;100332.91;4453710;32;34771;-48
2021/11/08 12:01:10;;;;;;;6.25;3.12;;;;;;;12.82;52.06;100338.13;4454259;32;34252;-49
2021/11/08 12:03:38;;;;;;;6.55;3.50;;;;;;;12.73;51.56;100332.03;4453871;32;33378;-49
2021/11/08 12:06:17;;;;;;;5.90;2.90;;;;;;;12.82;51.77;100332.03;4453850;32;34674;-50
2021/11/08 12:08:46;;;;;;;5.47;2.60;;;;;;;12.69;50.99;100335.53;4452151;32;34692;-48
2021/11/08 12:11:14;;;;;;;5.90;3.10;;;;;;;12.67;50.50;100326.84;4453933;32;34134;-49
2021/11/08 12:13:53;;;;;;;5.82;3.03;;;;;;;12.53;50.39;100326.81;4453703;32;33995;-49
2021/11/08 12:16:26;;;;;;;7.40;3.20;;;;;;;12.75;50.23;100325.06;4453659;32;34006;-48
2021/11/08 12:18:56;;;;;;;7.28;3.03;;;;;;;12.71;49.87;100318.13;4453738;32;34591;-47
2021/11/08 12:21:34;;;;;;;6.93;3.00;;;;;;;12.72;49.84;100330.28;4453627;32;33609;-49
2021/11/08 12:24:15;;;;;;;4.25;2.83;;;;;;;13.03;49.10;100325.91;4448522;32;34173;-49
2021/11/08 12:26:43;;;;;;;5.50;2.90;;;;;;;12.55;49.40;100326.84;4460051;32;33882;-49
2021/11/08 12:29:19;;;;;;;4.95;2.20;;;;;;;13.02;49.15;100309.41;4456329;32;35852;-49
2021/11/08 12:31:59;;;;;;;8.20;2.87;;;;;;;12.89;48.70;100324.19;4453444;32;35242;-50
2021/11/08 12:34:26;;;;;;;6.97;2.58;;;;;;;13.20;47.79;100314.59;4452999;32;33327;-49
2021/11/08 12:37:04;;;;;;;8.32;2.65;;;;;;;13.40;47.07;100322.37;4452320;32;33666;-48
2021/11/08 12:39:32;;;;;;;5.10;2.00;;;;;;;13.34;46.87;100319.78;4453478;32;35238;-47
2021/11/08 12:42:06;;;;;;;4.37;2.25;;;;;;;13.16;47.17;100331.16;4453536;32;34094;-48
2021/11/08 12:44:35;;;;;;;6.28;1.83;;;;;;;13.16;45.79;100332.88;4453410;32;33509;-48
2021/11/08 12:47:04;;;;;;;5.68;2.15;;;;;;;13.18;45.76;100334.63;4454870;32;34723;-48
2021/11/08 12:49:51;;;;;;;4.35;2.12;;;;;;;13.05;45.94;100338.09;4468815;32;34689;-48
2021/11/08 12:52:25;;;;;;;3.28;1.80;;;;;;;13.23;45.79;100342.44;4468953;32;34213;-48
2021/11/08 12:55:05;;;;;;;8.32;3.40;;;;;;;13.12;46.66;100341.63;4468887;32;33567;-47
2021/11/08 12:57:35;;;;;;;7.15;2.58;;;;;;;12.54;47.19;100336.41;4468753;32;34754;-51
2021/11/08 13:00:23;;;;;;;4.45;1.90;;;;;;;12.74;46.99;100325.97;4468901;32;35730;-51
2021/11/08 13:02:55;;;;;;;4.60;2.03;;;;;;;12.68;47.05;100328.56;4467430;32;35142;-48
2021/11/08 13:05:31;;;;;;;6.50;2.40;;;;;;;12.72;46.65;100325.94;4468707;32;34373;-53
2021/11/08 13:08:00;;;;;;;4.87;2.08;;;;;;;12.46;46.73;100322.47;4469018;32;33934;-53
2021/11/08 13:10:31;;;;;;;5.28;2.08;;;;;;;12.62;46.59;100326.81;4469058;32;35606;-53
2021/11/08 13:12:59;;;;;;;5.62;2.90;;;;;;;12.76;46.64;100319.88;4469135;32;34457;-51